Slave Lake Airport
CYZH : now visible

Airfield :











YOU CAN JOIN US ON...

 
LOGIN :

Register | Disclaimer

   EN    FR    IT 

 









Legend :    VFR   Marginal VFR   IFR   Intensive IFR   Very Intensive IFR
Visi :
Ceiling :
>= 8 km
>= 3000ft
5 to 8 km
1000 to 3000 ft
1500m to 5 km
500 to 1000 ft
800 to 1500m
200 to 500 ft
< 800m
< 200 ft
Symbols :   Thunderstorms  Fog  Heavy snow  Heavy precipitations  Wind > 20 kt






- Airport Elevation : 1912 ft
- IATA code : YZH


CYZH - Slave Lake

CURRENT METAR :
  • 121700Z AUTO 11008KT 060V130 9SM SCT120 15/03 A3007 RMK SLP198 DENSITY ALT 2300FT

EXPIRED METARs :
  • 121600Z AUTO 07006KT 050V120 9SM OVC120 11/04 A3009 RMK SLP207
  • 121500Z AUTO 10005KT 060V130 9SM OVC120 07/03 A3010 RMK SLP211

TAF TAF CYZH
Valid from the 12 at 13:00 until the 13 at 01:00 UTC


121238Z 1213/1301 VRB03KT P6SM BKN120
FM121700 13006KT P6SM BKN080
TEMPO 1221/1301 P6SM -SHRA RMK FCST BASED ON AUTO OBS. NXT FCST BY 121900Z
CZEG FIR / North America



MET'MAP, your aeronautical weather chart ! - Copyright ORBIFLY December 2007 - Disclaimer

ORBIFLY MET'MAP TEAM :

Programming & Development : Alexandra Zaïnal
Concept & original design : Baudouin d'Aumeries
Assistance for programming : Marc-Olivier Méhu
Technical & hardware support : Manuel Goepfert

Contact : metmap@orbifly.com




SOURCES & CREDITS :

   NOAA       Earth
Advisory